• Join FlightAware (Why Join?)
  • Login
  • US Flag 
06:28AM EST


 

Airport Tracker/Info


-or-


 

Live Flight TrackerFlight Track Log ✈ EJA396 ✈ 27-Sep-2013 ✈ KHTS - KLWB

Flight Track Log - Related Links

Times and Time Zones

All times are in EDT time to prevent confusion due to time zone crossing. See the EJA396 flight status page for this flight to view local times or setup timezone preferences in your user account.

Time Position Orientation Groundspeed Altitude Reporting Facility
EDT Latitude Longitude Course Direction KTS MPH feet Rate Location/Type
02:36PM 38.3919 -82.6161 110° East 237 273 3,200  Level Indianapolis Center
02:37PM 38.4542 -82.6272 352° North 227 261 6,000 1,800 Climbing Indianapolis Center
02:38PM 38.5106 -82.5786 34° Northeast 281 323 7,000 1,140 Climbing Indianapolis Center
02:39PM 38.4894 -82.4711 104° East 295 339 8,400 1,380 Climbing Indianapolis Center
02:40PM 38.4686 -82.3647 104° East 304 350 9,900 1,200 Climbing Indianapolis Center
02:41PM 38.2560 -82.0664 110° East  Level Estimated
02:41PM 38.4456 -82.2472 104° East 328 377 10,900  Level Indianapolis Center
02:42PM 38.4214 -82.1272 104° East 347 399 11,000  Climbing Indianapolis Center
02:43PM 38.3922 -81.9797 104° East 358 412 11,000  Level Indianapolis Center
02:44PM 38.3675 -81.8578 104° East 359 413 11,000  Level Indianapolis Center
02:45PM 38.3400 -81.7394 106° East 353 406 11,000  Level Indianapolis Center
02:46PM 38.3000 -81.6261 114° Southeast 352 405 11,000  Level Indianapolis Center
02:47PM 38.2586 -81.5128 115° Southeast 355 409 11,000  Level Indianapolis Center
02:48PM 38.2111 -81.3758 114° Southeast 355 409 11,000  Level Indianapolis Center
02:49PM 38.1700 -81.2628 115° Southeast 355 409 11,000  Level Indianapolis Center
02:50PM 38.1292 -81.1489 114° Southeast 356 410 11,000  Level Indianapolis Center
02:51PM 38.0889 -81.0356 114° Southeast 354 407 11,000 -60 Level Indianapolis Center
02:52PM 38.0483 -80.9228 115° Southeast 353 406 10,900 -780 Descending Indianapolis Center
02:53PM 38.0128 -80.8258 115° Southeast 303 349 9,500 -1,500 Descending Indianapolis Center
02:54PM 37.9722 -80.7144 115° Southeast 291 335 7,800 -1,620 Descending Indianapolis Center
02:55PM 37.9425 -80.6278 113° Southeast 272 313 6,200 -840 Descending Indianapolis Center
02:56PM 37.9158 -80.5669 119° Southeast 251 289 6,200 -180 Level Washington Center
02:57PM 37.8761 -80.5169 135° Southeast 203 234 5,900 -1,080 Descending Washington Center
02:58PM 37.8272 -80.4847 152° Southeast 208 239 4,100 -1,140 Descending Washington Center
02:59PM 37.7836 -80.4294 135° Southeast 208 239 3,700 -420 Descending Washington Center